Time;durP1;ratioP1;P1;durP2;ratioP2;P2;SDS_P1;SDS_P2;PMS_P1;PMS_P2;Temp;Humidity;BMP_temperature;BMP_pressure;BME280_temperature;BME280_humidity;BME280_pressure;Samples;Min_cycle;Max_cycle;Signal;HPM_P1;HPM_P2
2022/06/07 00:00:14;;;;;;;7.30;1.60;;;15.10;99.90;;;;;;5053484;28;20635;-65
2022/06/07 00:02:40;;;;;;;1.92;1.67;;;14.90;99.90;;;;;;5050209;28;20111;-63
2022/06/07 00:05:06;;;;;;;2.67;1.40;;;14.80;99.90;;;;;;5049101;28;20121;-64
2022/06/07 00:07:32;;;;;;;3.80;1.83;;;14.70;99.90;;;;;;5051810;28;20029;-61
2022/06/07 00:09:57;;;;;;;1.63;1.52;;;14.60;99.90;;;;;;5051892;28;20079;-61
2022/06/07 00:12:24;;;;;;;7.20;1.60;;;14.40;99.90;;;;;;5048102;28;20025;-62
2022/06/07 00:14:50;;;;;;;2.60;1.75;;;14.30;99.90;;;;;;5055939;28;20384;-62
2022/06/07 00:17:15;;;;;;;2.42;1.50;;;14.20;99.90;;;;;;5052477;28;20151;-60
2022/06/07 00:19:41;;;;;;;2.63;1.60;;;14.10;99.90;;;;;;5048203;28;20028;-61
2022/06/07 00:22:07;;;;;;;2.15;1.60;;;13.90;99.90;;;;;;5051389;28;20090;-63
2022/06/07 00:24:33;;;;;;;3.63;2.05;;;13.80;99.90;;;;;;5049469;28;20506;-62
2022/06/07 00:27:00;;;;;;;2.65;2.05;;;13.70;99.90;;;;;;5049565;28;20033;-62
2022/06/07 00:29:27;;;;;;;5.07;2.00;;;13.70;99.90;;;;;;5048274;28;20025;-63
2022/06/07 00:31:53;;;;;;;7.07;2.20;;;13.60;99.90;;;;;;5043783;28;20017;-62
2022/06/07 00:34:19;;;;;;;2.97;2.10;;;13.60;99.90;;;;;;5049609;28;20025;-62
2022/06/07 00:36:45;;;;;;;4.32;1.63;;;13.60;99.90;;;;;;5047883;28;20040;-63
2022/06/07 00:39:12;;;;;;;4.60;2.08;;;13.50;99.90;;;;;;5049469;28;20032;-62
2022/06/07 00:41:38;;;;;;;7.45;2.33;;;13.50;99.90;;;;;;5052211;28;20131;-66
2022/06/07 00:44:21;;;;;;;6.63;2.25;;;13.40;99.90;;;;;;5050580;28;20447;-61
2022/06/07 00:46:48;;;;;;;5.13;2.22;;;13.30;99.90;;;;;;5050306;28;20054;-61
2022/06/07 00:49:17;;;;;;;4.10;2.25;;;13.30;99.90;;;;;;5047536;28;20108;-63
2022/06/07 00:51:46;;;;;;;8.63;2.75;;;13.20;99.90;;;;;;5044045;28;20174;-64
2022/06/07 00:54:23;;;;;;;3.08;2.00;;;13.10;99.90;;;;;;5047935;28;20068;-61
2022/06/07 00:56:49;;;;;;;3.75;2.10;;;13.10;99.90;;;;;;5048981;28;20131;-59
2022/06/07 00:59:15;;;;;;;4.43;2.60;;;13.10;99.90;;;;;;5047796;28;20469;-63
2022/06/07 01:01:40;;;;;;;4.70;2.42;;;13.00;99.90;;;;;;5047451;28;20033;-60
2022/06/07 01:04:06;;;;;;;2.70;1.90;;;13.00;99.90;;;;;;5047466;28;20146;-55
2022/06/07 01:12:00;;;;;;;6.33;2.50;;;13.10;99.90;;;;;;5047822;28;20110;-61
2022/06/07 01:14:25;;;;;;;3.28;2.38;;;13.00;99.90;;;;;;5047768;28;20060;-57
2022/06/07 01:16:51;;;;;;;2.88;2.28;;;13.00;99.90;;;;;;5046064;28;20025;-54
2022/06/07 01:19:17;;;;;;;4.35;2.42;;;12.90;99.90;;;;;;5043393;28;20037;-60
2022/06/07 01:21:43;;;;;;;2.97;2.63;;;12.90;99.90;;;;;;5045333;28;20043;-59
2022/06/07 01:24:09;;;;;;;2.80;2.10;;;12.80;99.90;;;;;;5047986;28;20033;-60
2022/06/07 01:26:34;;;;;;;3.40;2.10;;;12.90;99.90;;;;;;5048252;28;20040;-61
2022/06/07 01:29:01;;;;;;;3.38;2.15;;;12.90;99.90;;;;;;5047302;28;21605;-61
2022/06/07 01:31:27;;;;;;;4.05;2.55;;;12.80;99.90;;;;;;5045127;28;20491;-62
2022/06/07 01:33:53;;;;;;;8.20;2.63;;;12.70;99.90;;;;;;5048342;28;20060;-61
2022/06/07 01:36:19;;;;;;;3.92;2.58;;;12.60;99.90;;;;;;5046489;28;20495;-61
2022/06/07 01:41:53;;;;;;;4.82;2.35;;;12.50;99.90;;;;;;5048622;28;20044;-53
2022/06/07 01:44:16;;;;;;;3.60;2.63;;;12.50;99.90;;;;;;5046956;28;20039;-63
2022/06/07 01:46:42;;;;;;;3.03;2.67;;;12.50;99.90;;;;;;5047440;28;20115;-60
2022/06/07 01:49:08;;;;;;;3.95;2.50;;;12.50;99.90;;;;;;5047364;28;20408;-54
2022/06/07 01:51:34;;;;;;;8.63;2.83;;;12.40;99.90;;;;;;5044393;28;20027;-59
2022/06/07 01:53:59;;;;;;;2.97;2.38;;;12.40;99.90;;;;;;5049311;28;20029;-59
2022/06/07 01:56:25;;;;;;;5.95;2.65;;;12.30;99.90;;;;;;5050128;28;20033;-59
2022/06/07 01:58:51;;;;;;;4.18;2.60;;;12.30;99.90;;;;;;5048173;28;20079;-60
2022/06/07 02:01:16;;;;;;;5.82;2.60;;;12.30;99.90;;;;;;5047526;28;20028;-60
2022/06/07 02:03:42;;;;;;;7.25;2.95;;;12.30;99.90;;;;;;5046383;28;20040;-58
2022/06/07 02:06:11;;;;;;;5.60;2.70;;;12.30;99.90;;;;;;5046216;28;20406;-60
2022/06/07 02:08:37;;;;;;;7.43;2.85;;;12.40;99.90;;;;;;5045031;28;20028;-54
2022/06/07 02:11:11;;;;;;;6.38;2.88;;;12.30;99.90;;;;;;5047891;28;20111;-54
2022/06/07 02:13:37;;;;;;;5.15;3.20;;;12.20;99.90;;;;;;5049193;28;20469;-54
2022/06/07 02:16:03;;;;;;;3.20;2.78;;;12.20;99.90;;;;;;5041224;28;20029;-57
2022/06/07 02:18:29;;;;;;;4.47;2.60;;;12.20;99.90;;;;;;5047488;28;20025;-56
2022/06/07 02:20:56;;;;;;;6.28;2.80;;;12.10;99.90;;;;;;5046385;28;20360;-56
2022/06/07 02:23:23;;;;;;;5.35;3.15;;;12.00;99.90;;;;;;5046427;28;20128;-55
2022/06/07 02:25:52;;;;;;;6.22;3.08;;;12.00;99.90;;;;;;5085754;22;20048;-61
2022/06/07 02:28:19;;;;;;;9.57;2.85;;;11.90;99.90;;;;;;5065153;28;20024;-61
2022/06/07 02:30:45;;;;;;;4.57;2.83;;;11.90;99.90;;;;;;5065554;28;20125;-63
2022/06/07 02:33:11;;;;;;;2.83;2.42;;;11.90;99.90;;;;;;5066148;28;20474;-61
2022/06/07 02:35:40;;;;;;;5.38;2.70;;;11.90;99.90;;;;;;5059014;28;20082;-62
2022/06/07 02:38:07;;;;;;;3.70;2.85;;;11.90;99.90;;;;;;5048051;28;20029;-60
2022/06/07 02:40:34;;;;;;;7.70;2.63;;;12.00;99.90;;;;;;5045302;28;20372;-62
2022/06/07 02:43:00;;;;;;;4.95;3.05;;;12.00;99.90;;;;;;5048156;28;20605;-62
2022/06/07 02:45:26;;;;;;;6.70;3.13;;;12.00;99.90;;;;;;5050844;28;20073;-62
2022/06/07 02:47:51;;;;;;;4.18;2.78;;;11.90;99.90;;;;;;5054230;28;20118;-61
2022/06/07 02:50:17;;;;;;;3.05;2.47;;;11.90;99.90;;;;;;5055122;28;20491;-63
2022/06/07 02:52:42;;;;;;;6.68;2.53;;;11.90;99.90;;;;;;5057688;28;20025;-65
2022/06/07 02:55:08;;;;;;;4.55;2.35;;;11.80;99.90;;;;;;5050265;28;20198;-63
2022/06/07 02:57:34;;;;;;;5.47;2.67;;;11.80;99.90;;;;;;5047494;28;20441;-63
2022/06/07 03:00:00;;;;;;;3.95;2.67;;;11.80;99.90;;;;;;5029064;28;20025;-64
2022/06/07 03:02:26;;;;;;;5.20;2.88;;;11.80;99.90;;;;;;5048736;28;20021;-64
2022/06/07 03:04:51;;;;;;;4.55;2.70;;;11.80;99.90;;;;;;5049345;28;20109;-63
2022/06/07 03:07:17;;;;;;;3.78;2.70;;;11.80;99.90;;;;;;5050671;28;20029;-62
2022/06/07 03:09:42;;;;;;;4.38;2.80;;;11.80;99.90;;;;;;5051151;28;20040;-63
2022/06/07 03:12:08;;;;;;;4.63;3.05;;;11.70;99.90;;;;;;5053922;28;20104;-62
2022/06/07 03:14:34;;;;;;;4.18;3.25;;;11.70;99.90;;;;;;5050206;28;20021;-63
2022/06/07 03:16:59;;;;;;;8.65;4.40;;;11.80;99.90;;;;;;5052255;28;20372;-57
2022/06/07 03:19:28;;;;;;;3.50;2.90;;;11.70;99.90;;;;;;5048817;28;20055;-62
2022/06/07 03:21:53;;;;;;;5.18;3.13;;;11.60;99.90;;;;;;5051742;28;20494;-61
2022/06/07 03:24:19;;;;;;;3.67;2.92;;;11.60;99.90;;;;;;5014840;28;1031514;-64
2022/06/07 03:26:44;;;;;;;3.38;2.47;;;11.50;99.90;;;;;;5051059;28;20558;-61
2022/06/07 03:29:10;;;;;;;6.75;3.45;;;11.50;99.90;;;;;;5050281;28;20092;-63
2022/06/07 03:31:36;;;;;;;3.10;2.80;;;11.40;99.90;;;;;;5048581;28;20025;-60
2022/06/07 03:34:01;;;;;;;5.18;2.92;;;11.40;99.90;;;;;;5049813;28;20024;-62
2022/06/07 03:36:29;;;;;;;11.35;3.60;;;11.30;99.90;;;;;;5046201;28;20037;-64
2022/06/07 03:38:58;;;;;;;5.25;3.50;;;11.30;99.90;;;;;;5049730;28;20092;-61
2022/06/07 03:41:26;;;;;;;8.88;3.17;;;11.30;99.90;;;;;;5051156;28;20029;-63
2022/06/07 03:43:52;;;;;;;3.35;3.00;;;11.30;99.90;;;;;;5054726;28;20025;-62
2022/06/07 03:46:21;;;;;;;3.15;2.67;;;11.30;99.90;;;;;;5050832;28;20033;-64
2022/06/07 03:48:46;;;;;;;5.30;3.08;;;11.30;99.90;;;;;;5048475;28;20454;-63
2022/06/07 03:51:14;;;;;;;10.43;3.33;;;11.40;99.90;;;;;;5051001;28;20037;-62
2022/06/07 03:53:40;;;;;;;6.45;3.53;;;11.40;99.90;;;;;;5044847;28;20112;-62
2022/06/07 03:56:06;;;;;;;4.78;3.00;;;11.40;99.90;;;;;;5051001;28;20025;-61
2022/06/07 03:58:32;;;;;;;3.72;3.03;;;11.50;99.90;;;;;;5049586;28;20435;-62
2022/06/07 04:00:59;;;;;;;4.25;2.67;;;11.50;99.90;;;;;;5050024;28;20029;-63
2022/06/07 04:03:26;;;;;;;6.40;3.42;;;11.60;99.90;;;;;;5049144;28;20028;-63
2022/06/07 04:05:52;;;;;;;5.13;2.83;;;11.60;99.90;;;;;;5051890;28;20031;-61
2022/06/07 04:08:18;;;;;;;4.55;3.25;;;11.70;99.90;;;;;;5049168;28;20495;-61
2022/06/07 04:10:48;;;;;;;4.35;3.03;;;11.70;99.90;;;;;;5049747;28;20032;-58
2022/06/07 04:13:14;;;;;;;7.00;2.88;;;11.80;99.90;;;;;;5049205;28;20128;-63
2022/06/07 04:15:41;;;;;;;3.00;2.60;;;11.80;99.90;;;;;;5049583;28;20392;-62
2022/06/07 04:18:07;;;;;;;5.03;3.33;;;11.90;99.90;;;;;;5047371;28;20041;-62
2022/06/07 04:20:33;;;;;;;6.78;3.17;;;11.90;99.90;;;;;;5052137;28;20098;-62
2022/06/07 04:22:58;;;;;;;6.05;3.35;;;11.90;99.90;;;;;;5053209;28;20067;-60
2022/06/07 04:25:24;;;;;;;4.50;2.65;;;11.90;99.90;;;;;;5048842;28;20061;-61
2022/06/07 04:27:50;;;;;;;9.15;3.30;;;12.00;99.90;;;;;;5046254;28;20064;-61
2022/06/07 04:30:16;;;;;;;5.35;3.28;;;12.00;99.90;;;;;;5055050;28;20458;-60
2022/06/07 04:32:46;;;;;;;6.05;3.10;;;12.00;99.90;;;;;;5051122;28;20025;-62
2022/06/07 04:35:15;;;;;;;5.72;3.13;;;12.10;99.90;;;;;;5054026;28;20149;-61
2022/06/07 04:37:40;;;;;;;5.32;2.95;;;12.10;99.90;;;;;;5051418;28;20040;-61
2022/06/07 04:40:07;;;;;;;5.25;2.20;;;12.10;99.90;;;;;;5048509;28;20403;-63
2022/06/07 04:42:33;;;;;;;4.25;2.42;;;12.20;99.90;;;;;;5055093;28;20035;-62
2022/06/07 04:44:58;;;;;;;2.95;2.35;;;12.20;99.90;;;;;;5050411;28;20029;-63
2022/06/07 04:47:24;;;;;;;4.00;2.40;;;12.30;99.90;;;;;;5036817;28;20029;-62
2022/06/07 04:49:49;;;;;;;4.75;2.53;;;12.40;99.90;;;;;;5050231;28;20013;-63
2022/06/07 04:52:15;;;;;;;7.63;2.80;;;12.50;99.90;;;;;;5049004;28;20036;-63
2022/06/07 04:54:40;;;;;;;5.85;2.80;;;12.60;99.90;;;;;;5050233;28;20021;-62
2022/06/07 04:57:06;;;;;;;5.15;2.83;;;12.70;99.90;;;;;;5047103;28;20035;-61
2022/06/07 04:59:32;;;;;;;5.05;2.75;;;12.80;99.90;;;;;;5050554;28;20048;-62
2022/06/07 05:01:57;;;;;;;6.45;2.53;;;13.00;99.90;;;;;;5049817;28;20037;-62
2022/06/07 05:04:23;;;;;;;4.82;2.80;;;13.10;99.90;;;;;;5054341;28;20398;-62
2022/06/07 05:06:49;;;;;;;3.47;2.33;;;13.30;99.90;;;;;;5050986;28;20127;-61
2022/06/07 05:09:17;;;;;;;6.10;2.25;;;13.40;99.90;;;;;;5049434;28;20136;-61
2022/06/07 05:11:47;;;;;;;4.95;2.47;;;13.50;99.90;;;;;;5051044;28;20028;-62
2022/06/07 05:14:13;;;;;;;3.53;2.08;;;13.80;99.90;;;;;;5049876;28;20100;-61
2022/06/07 05:16:41;;;;;;;7.88;2.38;;;13.90;99.90;;;;;;5052205;28;20112;-61
2022/06/07 05:19:07;;;;;;;7.13;1.80;;;14.20;99.90;;;;;;5049421;28;20039;-61
2022/06/07 05:21:33;;;;;;;6.15;2.03;;;14.20;99.90;;;;;;5049061;28;20083;-56
2022/06/07 05:23:59;;;;;;;4.75;1.63;;;14.40;99.90;;;;;;5049104;28;20072;-59
2022/06/07 05:26:29;;;;;;;10.93;2.13;;;14.50;99.90;;;;;;5043526;28;20677;-59
2022/06/07 05:28:56;;;;;;;6.13;2.00;;;14.60;99.90;;;;;;5043667;28;20025;-60
2022/06/07 05:31:21;;;;;;;1.95;1.70;;;14.70;99.90;;;;;;5044141;28;20514;-60
2022/06/07 05:33:47;;;;;;;2.33;1.60;;;14.90;99.90;;;;;;5046942;28;20017;-58
2022/06/07 05:36:13;;;;;;;2.65;1.50;;;15.10;99.90;;;;;;5033278;28;20029;-57
2022/06/07 05:38:38;;;;;;;3.55;1.48;;;15.30;99.90;;;;;;5049686;28;20418;-57
2022/06/07 05:41:04;;;;;;;5.28;1.50;;;15.40;99.90;;;;;;5048250;28;20025;-58
2022/06/07 05:43:29;;;;;;;10.25;2.25;;;15.50;99.90;;;;;;5049239;28;20051;-55
2022/06/07 05:45:56;;;;;;;6.53;1.70;;;15.60;99.90;;;;;;5053377;28;20028;-57
2022/06/07 05:48:23;;;;;;;4.63;1.20;;;15.70;99.90;;;;;;5050007;28;20021;-59
2022/06/07 05:50:50;;;;;;;4.35;1.65;;;15.80;99.90;;;;;;5050595;28;20083;-55
2022/06/07 05:53:18;;;;;;;5.65;1.58;;;16.00;99.90;;;;;;5050320;28;20542;-55
2022/06/07 05:55:43;;;;;;;3.42;1.60;;;16.00;99.90;;;;;;5050999;28;20028;-57
2022/06/07 05:58:09;;;;;;;4.32;1.92;;;16.10;99.90;;;;;;5051441;28;20045;-57
2022/06/07 06:00:36;;;;;;;7.07;2.13;;;16.20;99.90;;;;;;5049932;28;20036;-57
2022/06/07 06:03:02;;;;;;;8.55;1.85;;;16.30;99.90;;;;;;5049685;28;20035;-58
2022/06/07 06:05:28;;;;;;;4.20;1.98;;;16.50;99.90;;;;;;5050103;28;20104;-58
2022/06/07 06:10:38;;;;;;;4.20;1.43;;;16.80;99.90;;;;;;5050701;28;20481;-59
2022/06/07 06:13:03;;;;;;;5.30;1.83;;;16.90;99.90;;;;;;5050673;28;20259;-55
2022/06/07 06:15:29;;;;;;;7.35;2.15;;;17.00;99.90;;;;;;5051939;28;20509;-55
2022/06/07 06:17:55;;;;;;;8.27;2.22;;;17.00;99.90;;;;;;5052140;28;20033;-58
2022/06/07 06:20:21;;;;;;;4.88;1.75;;;16.90;99.90;;;;;;5055107;28;20025;-57
2022/06/07 06:22:47;;;;;;;4.47;1.65;;;16.90;99.90;;;;;;5054810;28;20025;-57
2022/06/07 06:25:13;;;;;;;8.30;1.98;;;17.00;99.90;;;;;;5054707;28;20029;-56
2022/06/07 06:27:39;;;;;;;4.97;2.35;;;17.00;99.90;;;;;;5055816;28;20036;-59
2022/06/07 06:30:06;;;;;;;4.63;1.80;;;17.10;99.90;;;;;;5055023;28;20018;-57
2022/06/07 06:32:32;;;;;;;4.82;1.42;;;17.10;99.90;;;;;;5047956;28;20032;-59
2022/06/07 06:34:58;;;;;;;4.57;1.73;;;17.20;99.90;;;;;;5054523;28;20029;-58
2022/06/07 06:37:23;;;;;;;7.78;1.70;;;17.30;99.90;;;;;;5045887;28;20400;-58
2022/06/07 06:39:49;;;;;;;2.35;1.33;;;17.30;99.90;;;;;;5054201;28;20025;-58
2022/06/07 06:42:15;;;;;;;3.78;1.40;;;17.30;99.90;;;;;;5053883;28;20094;-56
2022/06/07 06:44:40;;;;;;;1.92;1.13;;;17.30;99.90;;;;;;5061657;28;20494;-58
2022/06/07 06:47:07;;;;;;;6.65;1.10;;;17.40;99.90;;;;;;5053425;28;20037;-57
2022/06/07 06:49:33;;;;;;;4.10;1.00;;;17.60;99.90;;;;;;5054247;28;20044;-59
2022/06/07 06:51:59;;;;;;;5.00;1.17;;;17.70;99.90;;;;;;5053566;28;20496;-57
2022/06/07 06:54:25;;;;;;;8.02;1.00;;;17.80;99.90;;;;;;5054431;28;20024;-58
2022/06/07 06:56:51;;;;;;;6.22;1.60;;;17.90;99.90;;;;;;5053239;28;20101;-57
2022/06/07 06:59:18;;;;;;;1.58;1.38;;;17.90;99.90;;;;;;5056053;28;20108;-59
2022/06/07 07:01:43;;;;;;;2.80;0.90;;;17.90;99.90;;;;;;5054211;28;20043;-59
2022/06/07 07:04:16;;;;;;;10.43;0.98;;;17.90;99.90;;;;;;5053866;28;20033;-60
2022/06/07 07:06:42;;;;;;;3.00;1.08;;;17.90;99.90;;;;;;5053001;28;20475;-57
2022/06/07 07:09:09;;;;;;;3.78;1.05;;;17.90;99.90;;;;;;5061419;28;20171;-56
2022/06/07 07:11:53;;;;;;;3.85;1.10;;;17.90;99.90;;;;;;5053752;28;20036;-55
2022/06/07 07:14:19;;;;;;;8.40;1.30;;;17.90;99.90;;;;;;5058448;28;20032;-55
2022/06/07 07:16:47;;;;;;;4.70;1.10;;;17.80;99.90;;;;;;5053005;28;20060;-57
2022/06/07 07:19:14;;;;;;;3.80;1.10;;;17.80;99.90;;;;;;5055596;28;20088;-58
2022/06/07 07:21:48;;;;;;;7.28;1.25;;;17.80;99.90;;;;;;5055224;28;20033;-54
2022/06/07 07:24:15;;;;;;;;;;;17.90;99.90;;;;;;5053929;28;20104;-56
2022/06/07 07:26:43;;;;;;;3.17;0.80;;;17.90;99.90;;;;;;5053004;28;20280;-57
2022/06/07 07:29:11;;;;;;;2.97;1.00;;;18.00;99.90;;;;;;5054545;28;20025;-58
2022/06/07 07:31:37;;;;;;;5.18;1.10;;;18.10;99.90;;;;;;5053425;28;20037;-58
2022/06/07 07:34:05;;;;;;;3.60;1.05;;;18.30;99.90;;;;;;5055888;28;20028;-58
2022/06/07 07:36:33;;;;;;;5.78;1.30;;;18.40;99.90;;;;;;5052381;28;20025;-58
2022/06/07 07:38:59;;;;;;;5.20;1.20;;;18.50;99.90;;;;;;5053632;28;20491;-56
2022/06/07 07:41:26;;;;;;;1.95;0.90;;;18.50;99.90;;;;;;5053324;28;20041;-57
2022/06/07 07:43:54;;;;;;;8.70;2.47;;;18.50;99.90;;;;;;5054789;28;20029;-58
2022/06/07 07:46:22;;;;;;;3.00;0.93;;;18.60;99.90;;;;;;5051833;28;20471;-57
2022/06/07 07:48:48;;;;;;;9.07;1.38;;;18.60;99.90;;;;;;5053572;28;20399;-57
2022/06/07 07:51:20;;;;;;;2.95;1.10;;;18.70;99.90;;;;;;5052983;28;20025;-56
2022/06/07 07:53:45;;;;;;;3.97;1.00;;;18.70;99.90;;;;;;5053218;28;20040;-59
2022/06/07 07:56:11;;;;;;;3.88;0.85;;;18.70;99.90;;;;;;5052112;28;20430;-58
2022/06/07 07:58:36;;;;;;;3.05;1.10;;;18.70;99.90;;;;;;5051583;28;20391;-54
2022/06/07 08:01:12;;;;;;;1.10;1.00;;;18.70;99.90;;;;;;5052030;28;20755;-57
2022/06/07 08:03:39;;;;;;;2.28;1.10;;;18.80;99.90;;;;;;5052317;28;20024;-57
2022/06/07 08:06:09;;;;;;;1.75;1.00;;;18.80;99.90;;;;;;5051131;28;20024;-57
2022/06/07 08:08:36;;;;;;;7.55;1.30;;;18.80;99.90;;;;;;5052862;28;20013;-55
2022/06/07 08:11:02;;;;;;;3.70;1.75;;;18.90;99.90;;;;;;5050452;28;20024;-56
2022/06/07 08:13:29;;;;;;;4.47;1.20;;;18.90;99.90;;;;;;5055028;28;20524;-56
2022/06/07 08:15:54;;;;;;;3.45;1.15;;;19.00;99.90;;;;;;5051275;28;20111;-56
2022/06/07 08:18:23;;;;;;;3.85;1.08;;;19.10;99.90;;;;;;5052618;28;20088;-55
2022/06/07 08:20:49;;;;;;;2.55;0.95;;;19.00;99.90;;;;;;5051946;28;20013;-56
2022/06/07 08:23:15;;;;;;;5.40;1.35;;;18.90;99.90;;;;;;5052041;28;20032;-56
2022/06/07 08:25:41;;;;;;;5.03;1.02;;;19.00;99.90;;;;;;5051861;28;20128;-56
2022/06/07 08:28:07;;;;;;;2.97;1.00;;;19.00;99.90;;;;;;5087497;22;20611;-58
2022/06/07 08:30:33;;;;;;;2.55;1.02;;;19.20;99.90;;;;;;5088665;28;20128;-60
2022/06/07 08:37:32;;;;;;;3.20;1.10;;;19.30;99.90;;;;;;5089608;28;20481;-53
2022/06/07 08:38:30;;;;;;;2.13;1.00;;;19.40;99.90;;;;;;5073133;28;20078;-60
2022/06/07 08:40:56;;;;;;;4.57;0.90;;;19.40;99.90;;;;;;5068963;28;20460;-60
2022/06/07 08:43:23;;;;;;;1.75;0.90;;;19.50;99.90;;;;;;5070682;28;20043;-59
2022/06/07 08:45:50;;;;;;;3.85;0.93;;;19.70;99.90;;;;;;5069375;28;20372;-60
2022/06/07 08:48:26;;;;;;;1.63;1.17;;;19.70;99.90;;;;;;5065512;28;20045;-60
2022/06/07 08:51:19;;;;;;;1.63;0.88;;;19.60;99.90;;;;;;5068210;28;20410;-58
2022/06/07 08:53:50;;;;;;;2.05;1.10;;;19.50;99.90;;;;;;5068249;28;20850;-61
2022/06/07 08:56:19;;;;;;;3.33;1.10;;;19.60;99.90;;;;;;5067791;28;20098;-59
2022/06/07 08:58:49;;;;;;;6.05;1.17;;;19.60;99.90;;;;;;5068603;28;20039;-59
2022/06/07 09:01:32;;;;;;;3.75;1.25;;;19.80;99.90;;;;;;5069508;28;20425;-57
2022/06/07 09:04:04;;;;;;;1.92;1.20;;;19.70;99.90;;;;;;5069623;28;20541;-58
2022/06/07 09:06:36;;;;;;;4.35;1.40;;;19.80;99.90;;;;;;5069310;28;20046;-60
2022/06/07 09:09:04;;;;;;;2.25;0.90;;;19.90;99.90;;;;;;5069416;28;20131;-58
2022/06/07 09:14:42;;;;;;;2.05;0.60;;;20.00;99.90;;;;;;5069501;28;20110;-59
2022/06/07 09:17:18;;;;;;;1.88;1.30;;;20.20;99.90;;;;;;5069312;28;20023;-58
2022/06/07 09:19:46;;;;;;;3.92;0.70;;;20.20;99.90;;;;;;5069656;28;20027;-59
2022/06/07 09:22:29;;;;;;;1.80;0.90;;;20.40;99.90;;;;;;5068390;28;20036;-60
2022/06/07 09:25:13;;;;;;;2.45;1.38;;;20.50;99.90;;;;;;5069448;28;20111;-60
2022/06/07 09:27:40;;;;;;;5.43;1.15;;;20.40;99.90;;;;;;5069006;28;20039;-60
2022/06/07 09:30:37;;;;;;;3.70;1.05;;;20.50;99.90;;;;;;5067970;28;20477;-60
2022/06/07 09:33:49;;;;;;;1.90;0.70;;;20.30;99.90;;;;;;5068578;28;20078;-60
2022/06/07 09:36:25;;;;;;;2.22;0.82;;;20.00;99.90;;;;;;5065606;28;20090;-57
2022/06/07 09:39:00;;;;;;;1.35;0.85;;;19.90;99.90;;;;;;5068724;28;20513;-58
2022/06/07 09:41:37;;;;;;;1.27;0.82;;;19.90;99.90;;;;;;5068906;28;20043;-59
2022/06/07 09:44:29;;;;;;;0.93;0.50;;;20.10;99.90;;;;;;5069069;28;20081;-59
2022/06/07 09:47:04;;;;;;;2.72;0.73;;;20.10;99.90;;;;;;5063192;28;20035;-60
2022/06/07 09:49:37;;;;;;;1.98;1.08;;;20.10;99.90;;;;;;5069159;28;20017;-59
2022/06/07 09:52:24;;;;;;;1.95;1.00;;;20.30;99.90;;;;;;5068425;28;20044;-60
2022/06/07 09:55:12;;;;;;;1.27;0.70;;;20.40;99.90;;;;;;5069267;28;20544;-59
2022/06/07 09:57:40;;;;;;;7.60;1.15;;;20.40;99.90;;;;;;5068169;28;20126;-57
2022/06/07 10:00:17;;;;;;;3.58;0.77;;;20.40;99.90;;;;;;5062166;28;20025;-58
2022/06/07 10:03:15;;;;;;;3.88;0.80;;;20.40;99.90;;;;;;5068839;28;20036;-59
2022/06/07 10:06:01;;;;;;;3.08;0.90;;;20.40;99.90;;;;;;5069460;28;20020;-59
2022/06/07 10:08:34;;;;;;;2.45;0.90;;;20.50;99.90;;;;;;5063515;28;20106;-57
2022/06/07 10:11:26;;;;;;;3.10;1.13;;;20.60;99.90;;;;;;5068754;28;20020;-60
2022/06/07 10:14:10;;;;;;;4.25;0.80;;;20.60;99.90;;;;;;5068617;28;20020;-58
2022/06/07 10:16:54;;;;;;;4.38;0.80;;;20.50;99.90;;;;;;5068711;28;20045;-60
2022/06/07 10:19:28;;;;;;;3.90;1.00;;;20.60;99.90;;;;;;5068347;28;20024;-57
2022/06/07 10:22:17;;;;;;;3.25;1.13;;;20.70;99.90;;;;;;5068529;28;20024;-60
2022/06/07 10:24:55;;;;;;;1.95;0.88;;;20.80;99.90;;;;;;5068325;28;20029;-59
2022/06/07 10:27:29;;;;;;;2.30;0.70;;;21.10;99.90;;;;;;5068044;28;20036;-59
2022/06/07 10:30:16;;;;;;;2.40;0.82;;;21.20;99.90;;;;;;5062664;28;20024;-59
2022/06/07 10:33:16;;;;;;;1.30;0.90;;;21.40;99.90;;;;;;5067946;28;20110;-58
2022/06/07 10:36:09;;;;;;;6.43;0.98;;;21.40;99.90;;;;;;5067840;28;20039;-59
2022/06/07 10:39:08;;;;;;;2.92;1.00;;;21.30;99.90;;;;;;5068419;28;20546;-61
2022/06/07 10:42:02;;;;;;;5.57;1.17;;;21.50;99.90;;;;;;5066542;28;20158;-60
2022/06/07 10:44:48;;;;;;;5.32;0.77;;;21.10;99.90;;;;;;5068327;28;20029;-60
2022/06/07 10:47:20;;;;;;;1.88;0.90;;;21.20;99.90;;;;;;5049716;28;20030;-60
2022/06/07 10:49:52;;;;;;;4.30;0.90;;;21.20;99.90;;;;;;5062443;28;20472;-60
2022/06/07 10:52:45;;;;;;;1.90;0.60;;;21.00;99.90;;;;;;5068015;28;20032;-59
2022/06/07 10:55:30;;;;;;;15.25;1.85;;;20.90;99.90;;;;;;5049333;28;20039;-60
2022/06/07 10:58:06;;;;;;;4.45;0.77;;;21.00;99.90;;;;;;5067878;28;20105;-60
2022/06/07 11:00:50;;;;;;;1.33;0.90;;;20.90;99.90;;;;;;5067579;28;20075;-60
2022/06/07 11:03:38;;;;;;;1.00;0.80;;;20.70;99.90;;;;;;5067821;28;20071;-58
2022/06/07 11:09:35;;;;;;;3.78;1.05;;;20.50;99.90;;;;;;5070193;28;20113;-61
2022/06/07 11:12:03;;;;;;;;;;;20.40;99.90;;;;;;5071894;28;20082;-61
2022/06/07 11:15:01;;;;;;;3.03;0.95;;;20.30;99.90;;;;;;5065605;28;19943;-61
2022/06/07 11:17:37;;;;;;;1.35;0.98;;;20.40;99.90;;;;;;5071628;28;20544;-61
2022/06/07 11:20:15;;;;;;;5.88;1.23;;;20.30;99.90;;;;;;5071421;28;20052;-61
2022/06/07 11:22:55;;;;;;;1.65;0.70;;;20.50;99.90;;;;;;5071304;28;20043;-61
2022/06/07 11:25:37;;;;;;;6.70;0.90;;;20.60;99.90;;;;;;5071444;28;20047;-61
2022/06/07 11:28:16;;;;;;;3.10;0.73;;;20.60;99.90;;;;;;5071369;28;20052;-58
2022/06/07 11:30:45;;;;;;;1.90;0.80;;;20.50;99.90;;;;;;5071430;28;20082;-59
2022/06/07 11:33:38;;;;;;;3.38;1.00;;;20.40;99.90;;;;;;5071020;28;20466;-60
2022/06/07 11:36:12;;;;;;;4.03;1.10;;;20.30;99.90;;;;;;5067715;28;20460;-61
2022/06/07 11:38:58;;;;;;;3.55;1.10;;;20.30;99.90;;;;;;5066176;28;20124;-61
2022/06/07 11:41:38;;;;;;;3.20;0.90;;;20.30;99.90;;;;;;5064792;28;20024;-60
2022/06/07 11:44:10;;;;;;;4.93;1.10;;;20.20;99.90;;;;;;5067208;28;20020;-59
2022/06/07 11:46:35;;;;;;;3.22;0.80;;;20.30;99.90;;;;;;5069779;28;20048;-54
2022/06/07 11:49:24;;;;;;;4.40;1.10;;;20.20;99.90;;;;;;5066858;28;20097;-57
2022/06/07 11:51:57;;;;;;;3.35;0.98;;;20.00;99.90;;;;;;5018629;28;20124;-61
2022/06/07 11:54:53;;;;;;;2.35;1.00;;;19.80;99.90;;;;;;5065670;28;20032;-58
2022/06/07 11:57:32;;;;;;;1.13;0.98;;;19.60;99.90;;;;;;5068872;28;20025;-61
2022/06/07 12:00:03;;;;;;;5.10;1.15;;;19.60;99.90;;;;;;5066936;28;20489;-61
2022/06/07 12:02:35;;;;;;;1.13;0.98;;;19.60;99.90;;;;;;5067738;28;20054;-61
2022/06/07 12:05:15;;;;;;;2.22;0.93;;;19.80;99.90;;;;;;5067300;28;20032;-56
2022/06/07 12:07:50;;;;;;;3.67;1.00;;;19.80;99.90;;;;;;5067335;28;20036;-58
2022/06/07 12:10:18;;;;;;;4.63;1.20;;;19.70;99.90;;;;;;5068242;28;20024;-59
2022/06/07 12:12:54;;;;;;;3.60;1.27;;;19.50;99.90;;;;;;5052214;28;20020;-60
2022/06/07 12:15:25;;;;;;;3.45;1.23;;;19.60;99.90;;;;;;5069249;28;20744;-58
2022/06/07 12:18:00;;;;;;;2.15;1.15;;;19.50;99.90;;;;;;5062526;28;20032;-59
2022/06/07 12:20:34;;;;;;;1.27;0.90;;;19.70;99.90;;;;;;5065492;28;20036;-59
2022/06/07 12:23:33;;;;;;;3.35;1.25;;;19.80;99.90;;;;;;5064335;28;20036;-60
2022/06/07 12:26:18;;;;;;;4.05;1.08;;;20.10;99.90;;;;;;5067605;28;20112;-60
2022/06/07 12:28:59;;;;;;;1.90;1.00;;;20.30;99.90;;;;;;5069203;28;20496;-58
2022/06/07 12:31:37;;;;;;;3.85;1.40;;;20.20;99.90;;;;;;5068418;28;20029;-57
2022/06/07 12:34:15;;;;;;;13.55;2.20;;;20.40;99.90;;;;;;5064546;28;20364;-59
2022/06/07 12:36:42;;;;;;;8.43;1.45;;;20.40;99.90;;;;;;5068734;28;20529;-59
2022/06/07 12:39:13;;;;;;;6.43;1.30;;;20.50;99.90;;;;;;5069227;28;20025;-60
2022/06/07 12:41:52;;;;;;;2.00;1.10;;;20.50;99.90;;;;;;5069029;28;20031;-59
2022/06/07 12:44:29;;;;;;;3.92;1.33;;;20.40;99.90;;;;;;5050663;28;20067;-57
2022/06/07 12:46:56;;;;;;;2.45;1.13;;;20.40;99.90;;;;;;5069589;28;20123;-56
2022/06/07 12:49:40;;;;;;;3.40;1.20;;;20.20;99.90;;;;;;5068543;28;20092;-59
2022/06/07 12:52:07;;;;;;;3.70;1.30;;;20.10;99.90;;;;;;5065110;28;20482;-58
2022/06/07 12:54:34;;;;;;;2.75;1.08;;;20.10;99.90;;;;;;5064554;28;20051;-59
2022/06/07 12:57:04;;;;;;;4.30;1.60;;;20.00;99.90;;;;;;5064303;28;20458;-57
2022/06/07 12:59:32;;;;;;;3.15;1.45;;;20.10;99.90;;;;;;5067585;28;20036;-58
2022/06/07 13:01:58;;;;;;;3.63;1.42;;;19.90;99.90;;;;;;5067022;28;20498;-57
2022/06/07 13:04:36;;;;;;;4.32;1.40;;;19.80;99.90;;;;;;5067614;28;20077;-58
2022/06/07 13:07:26;;;;;;;6.80;1.48;;;19.80;99.90;;;;;;5067954;28;20072;-59
2022/06/07 13:09:57;;;;;;;5.15;1.42;;;20.00;99.90;;;;;;5064255;28;20037;-61
2022/06/07 13:12:35;;;;;;;4.20;1.58;;;20.20;99.90;;;;;;5065673;28;20020;-58
2022/06/07 13:15:09;;;;;;;6.35;1.70;;;19.90;99.90;;;;;;5064900;28;20034;-59
2022/06/07 13:17:39;;;;;;;23.40;2.75;;;20.20;99.90;;;;;;5068253;28;20078;-59
2022/06/07 13:20:08;;;;;;;4.50;1.92;;;20.50;99.90;;;;;;5068925;28;20071;-60
2022/06/07 13:22:42;;;;;;;5.20;1.45;;;20.50;99.90;;;;;;5068583;28;20028;-59
2022/06/07 13:25:17;;;;;;;5.03;1.58;;;20.50;99.90;;;;;;5067264;28;20040;-59